createdAt,value
2022-10-21T00:04:40.394Z,6.57
2022-10-21T00:09:55.381Z,14.60
2022-10-21T00:15:10.389Z,6.40
2022-10-21T00:20:25.409Z,8.60
2022-10-21T00:25:40.445Z,7.80
2022-10-21T00:30:57.941Z,8.60
2022-10-21T00:36:13.467Z,6.00
2022-10-21T00:41:28.651Z,9.13
2022-10-21T00:46:44.440Z,10.38
2022-10-21T00:51:59.747Z,8.50
2022-10-21T00:57:15.387Z,10.85
2022-10-21T01:02:30.632Z,10.65
2022-10-21T01:08:24.741Z,6.32
2022-10-21T01:13:40.437Z,8.93
2022-10-21T01:18:55.167Z,8.27
2022-10-21T01:24:10.688Z,7.53
2022-10-21T01:29:27.735Z,8.10
2022-10-21T01:34:43.785Z,7.78
2022-10-21T01:39:59.463Z,6.90
2022-10-21T01:45:14.406Z,8.30
2022-10-21T01:50:29.734Z,6.90
2022-10-21T01:55:45.423Z,20.27
2022-10-21T02:01:00.740Z,10.80
2022-10-21T02:06:16.708Z,10.55
2022-10-21T02:11:32.749Z,7.03
2022-10-21T02:16:48.741Z,7.05
2022-10-21T02:22:03.417Z,7.00
2022-10-21T02:27:18.428Z,6.43
2022-10-21T02:32:33.724Z,8.45
2022-10-21T02:37:49.433Z,8.45
2022-10-21T02:43:04.423Z,10.50
2022-10-21T02:48:19.410Z,15.93
2022-10-21T02:53:34.493Z,6.68
2022-10-21T02:58:49.494Z,5.75
2022-10-21T03:04:04.499Z,9.23
2022-10-21T03:09:19.469Z,11.48
2022-10-21T03:14:34.720Z,7.38
2022-10-21T03:19:50.407Z,11.35
2022-10-21T03:25:05.473Z,9.70
2022-10-21T03:30:20.390Z,9.50
2022-10-21T03:35:35.414Z,8.80
2022-10-21T03:40:50.453Z,6.90
2022-10-21T03:46:05.408Z,8.23
2022-10-21T03:51:20.460Z,9.45
2022-10-21T03:56:35.748Z,8.98
2022-10-21T04:01:51.529Z,8.82
2022-10-21T04:07:06.432Z,8.52
2022-10-21T04:12:21.712Z,10.00
2022-10-21T04:17:37.634Z,9.07
2022-10-21T04:22:53.717Z,13.13
2022-10-21T04:28:09.735Z,12.68
2022-10-21T04:33:25.767Z,10.98
2022-10-21T04:38:41.224Z,10.82
2022-10-21T04:43:56.742Z,13.68
2022-10-21T04:49:12.706Z,8.75
2022-10-21T04:54:28.434Z,8.43
2022-10-21T04:59:43.745Z,9.57
2022-10-21T05:04:59.743Z,12.45
2022-10-21T05:10:15.426Z,19.02
2022-10-21T05:15:30.419Z,9.38
2022-10-21T05:20:45.697Z,7.68
2022-10-21T05:26:01.675Z,10.02
2022-10-21T05:31:17.407Z,7.60
2022-10-21T05:36:32.472Z,6.20
2022-10-21T05:41:48.167Z,6.47
2022-10-21T05:47:03.400Z,7.68
2022-10-21T05:52:18.449Z,7.82
2022-10-21T05:57:33.420Z,7.63
2022-10-21T06:02:48.477Z,6.10
2022-10-21T06:08:03.456Z,10.32
2022-10-21T06:13:18.411Z,7.10
2022-10-21T06:18:33.452Z,6.47
2022-10-21T06:23:49.731Z,7.10
2022-10-21T06:29:05.442Z,4.57
2022-10-21T06:34:20.482Z,5.88
2022-10-21T06:39:35.760Z,6.40
2022-10-21T06:44:52.728Z,8.70
2022-10-21T06:50:09.730Z,8.43
2022-10-21T06:55:25.465Z,7.00
2022-10-21T07:00:40.456Z,5.45
2022-10-21T07:05:55.542Z,7.22
2022-10-21T07:11:10.453Z,6.93
2022-10-21T07:16:25.460Z,5.10
2022-10-21T07:21:40.395Z,4.47
2022-10-21T07:26:55.396Z,6.22
2022-10-21T07:32:10.750Z,7.60
2022-10-21T07:37:26.661Z,6.30
2022-10-21T07:42:42.411Z,8.63
2022-10-21T07:47:57.397Z,8.10
2022-10-21T07:53:13.156Z,7.53
2022-10-21T07:58:28.200Z,5.90
2022-10-21T08:03:43.808Z,5.70
2022-10-21T08:08:59.572Z,4.88
2022-10-21T08:14:14.414Z,5.03
2022-10-21T08:19:29.271Z,4.57
2022-10-21T08:24:44.428Z,6.10
2022-10-21T08:29:59.446Z,6.72
2022-10-21T08:35:14.437Z,6.95
2022-10-21T08:40:29.817Z,5.38
2022-10-21T08:45:45.693Z,5.15
2022-10-21T08:51:01.481Z,5.15
2022-10-21T08:56:19.817Z,12.57
2022-10-21T09:01:35.443Z,4.88
2022-10-21T09:06:50.653Z,4.43
2022-10-21T09:12:05.736Z,3.33
2022-10-21T09:17:21.436Z,7.03
2022-10-21T09:22:36.460Z,6.15
2022-10-21T09:27:56.146Z,4.97
2022-10-21T09:33:11.778Z,6.63
2022-10-21T09:38:27.501Z,7.57
2022-10-21T09:43:42.448Z,8.15
2022-10-21T09:49:36.299Z,5.97
2022-10-21T09:54:32.415Z,8.88
2022-10-21T09:59:47.444Z,8.55
2022-10-21T10:05:02.528Z,147.95
2022-10-21T10:10:17.768Z,147.68
2022-10-21T10:15:33.317Z,113.03
2022-10-21T10:20:48.526Z,115.88
2022-10-21T10:26:03.571Z,81.40
2022-10-21T10:31:18.211Z,71.07
2022-10-21T10:36:33.515Z,68.40
2022-10-21T10:41:48.461Z,54.25
2022-10-21T10:47:03.517Z,46.00
2022-10-21T10:52:18.525Z,50.53
2022-10-21T10:57:44.437Z,44.83
2022-10-21T11:03:07.481Z,37.13
2022-10-21T11:08:22.442Z,36.47
2022-10-21T11:13:41.300Z,37.60
2022-10-21T11:18:57.458Z,35.40
2022-10-21T11:24:12.483Z,27.42
2022-10-21T11:29:27.426Z,32.13
2022-10-21T11:34:42.443Z,22.58
2022-10-21T11:39:57.507Z,22.65
2022-10-21T11:45:12.894Z,20.92
2022-10-21T11:50:28.776Z,16.52
2022-10-21T11:55:44.582Z,17.77
2022-10-21T12:00:59.491Z,19.88
2022-10-21T12:06:14.459Z,15.38
2022-10-21T12:11:29.769Z,18.75
2022-10-21T12:16:45.824Z,13.77
2022-10-21T12:22:01.480Z,10.70
2022-10-21T12:27:16.747Z,9.27
2022-10-21T12:32:32.436Z,11.68
2022-10-21T12:37:47.461Z,7.95
2022-10-21T12:43:02.513Z,10.43
2022-10-21T12:48:17.443Z,8.27
2022-10-21T12:53:32.440Z,8.25
2022-10-21T12:58:47.429Z,8.13
2022-10-21T13:04:02.538Z,7.28
2022-10-21T13:09:17.331Z,6.45
2022-10-21T13:14:36.138Z,7.30
2022-10-21T13:19:51.496Z,5.85
2022-10-21T13:25:06.825Z,5.43
2022-10-21T13:30:22.473Z,7.93
2022-10-21T13:35:37.508Z,4.45
2022-10-21T13:40:53.020Z,4.63
2022-10-21T13:46:08.994Z,4.55
2022-10-21T13:51:24.441Z,4.45
2022-10-21T13:56:39.521Z,12.68
2022-10-21T14:01:54.515Z,7.50
2022-10-21T14:07:10.531Z,7.00
2022-10-21T14:12:25.464Z,3.45
2022-10-21T14:17:40.616Z,2.83
2022-10-21T14:22:56.805Z,3.53
2022-10-21T14:28:12.475Z,3.88
2022-10-21T14:33:27.454Z,3.65
2022-10-21T14:38:42.481Z,2.15
2022-10-21T14:43:57.473Z,2.47
2022-10-21T14:49:12.523Z,4.20
2022-10-21T14:54:28.485Z,1.88
2022-10-21T14:59:43.511Z,5.20
2022-10-21T15:04:58.451Z,4.25
2022-10-21T15:10:13.331Z,3.05
2022-10-21T15:15:28.476Z,2.10
2022-10-21T15:20:43.504Z,4.05
2022-10-21T15:25:59.039Z,2.65
2022-10-21T15:31:14.231Z,3.53
2022-10-21T15:36:29.521Z,5.32
2022-10-21T15:41:44.747Z,13.95
2022-10-21T15:47:00.276Z,15.55
2022-10-21T15:52:15.455Z,16.58
2022-10-21T15:57:30.445Z,12.25
2022-10-21T16:02:45.840Z,6.70
2022-10-21T16:08:01.571Z,9.70
2022-10-21T16:13:16.488Z,10.48
2022-10-21T16:18:31.513Z,5.60
2022-10-21T16:23:46.504Z,6.25
2022-10-21T16:29:01.490Z,7.28
2022-10-21T16:34:16.878Z,9.85
2022-10-21T16:39:32.596Z,5.65
2022-10-21T16:44:47.482Z,7.88
2022-10-21T16:50:02.558Z,3.13
2022-10-21T16:55:17.502Z,5.00
2022-10-21T17:00:32.501Z,7.30
2022-10-21T17:05:47.801Z,6.72
2022-10-21T17:11:03.479Z,4.25
2022-10-21T17:16:18.483Z,5.10
2022-10-21T17:21:33.806Z,4.20
2022-10-21T17:26:49.504Z,4.90
2022-10-21T17:32:04.776Z,4.18
2022-10-21T17:37:20.482Z,5.50
2022-10-21T17:42:36.019Z,6.03
2022-10-21T17:47:51.911Z,8.45
2022-10-21T17:53:07.809Z,3.90
2022-10-21T17:58:23.506Z,4.57
2022-10-21T18:03:38.497Z,6.07
2022-10-21T18:08:53.531Z,4.22
2022-10-21T18:14:08.523Z,5.85
2022-10-21T18:19:23.452Z,3.83
2022-10-21T18:24:38.333Z,3.33
2022-10-21T18:29:53.969Z,4.22
2022-10-21T18:35:09.253Z,4.80
2022-10-21T18:40:24.480Z,2.78
2022-10-21T18:45:39.511Z,4.53
2022-10-21T18:50:54.565Z,3.28
2022-10-21T18:56:09.497Z,5.75
2022-10-21T19:01:24.574Z,2.58
2022-10-21T19:06:39.503Z,2.63
2022-10-21T19:11:54.529Z,2.92
2022-10-21T19:17:09.513Z,3.67
2022-10-21T19:22:24.583Z,2.08
2022-10-21T19:27:39.701Z,4.70
2022-10-21T19:32:55.499Z,4.03
2022-10-21T19:38:20.462Z,17.98
2022-10-21T19:43:41.839Z,14.97
2022-10-21T19:48:57.494Z,5.18
2022-10-21T19:54:12.559Z,5.18
2022-10-21T19:59:27.518Z,4.38
2022-10-21T20:04:42.563Z,4.47
2022-10-21T20:09:57.488Z,3.08
2022-10-21T20:15:12.704Z,4.03
2022-10-21T20:20:27.808Z,7.40
2022-10-21T20:25:43.498Z,2.65
2022-10-21T20:30:58.539Z,1.80
2022-10-21T20:36:13.256Z,4.25
2022-10-21T20:41:28.801Z,3.22
2022-10-21T20:46:44.704Z,7.85
2022-10-21T20:52:00.812Z,2.35
2022-10-21T20:57:16.548Z,2.67
2022-10-21T21:02:31.514Z,2.80
2022-10-21T21:07:46.535Z,6.30
2022-10-21T21:13:01.793Z,4.90
2022-10-21T21:18:17.861Z,2.08
2022-10-21T21:23:33.502Z,2.55
2022-10-21T21:28:48.490Z,2.22
2022-10-21T21:34:03.773Z,3.80
2022-10-21T21:39:19.538Z,3.70
2022-10-21T21:44:34.523Z,3.00
2022-10-21T21:49:49.599Z,4.25
2022-10-21T21:55:04.497Z,2.85
2022-10-21T22:00:19.788Z,2.95
2022-10-21T22:05:35.633Z,2.75
2022-10-21T22:10:50.518Z,2.30
2022-10-21T22:16:05.483Z,9.20
2022-10-21T22:21:20.595Z,5.55
2022-10-21T22:26:35.470Z,6.80
2022-10-21T22:31:50.531Z,4.53
2022-10-21T22:37:05.554Z,5.63
2022-10-21T22:42:20.541Z,3.03
2022-10-21T22:47:35.258Z,2.85
2022-10-21T22:52:50.486Z,4.90
2022-10-21T22:58:05.839Z,6.93
2022-10-21T23:03:21.489Z,5.82
2022-10-21T23:08:36.545Z,4.53
2022-10-21T23:14:02.526Z,4.28
2022-10-21T23:19:18.513Z,2.38
2022-10-21T23:24:34.552Z,2.15
2022-10-21T23:29:49.493Z,2.67
2022-10-21T23:35:04.503Z,2.30
2022-10-21T23:40:19.560Z,3.80
2022-10-21T23:45:34.843Z,6.22
2022-10-21T23:50:50.540Z,11.35
2022-10-21T23:56:05.495Z,5.90
